• Join FlightAware (Why Join?)
  • Login
  • US Flag 
08:16AM EDT


 

Airport Tracker/Info


-or-


 

Live Flight TrackerFlight Track Log ✈ DAL2254 ✈ 11-May-2013 ✈ KLAX - KBNA

Flight Track Log - Related Links

Times and Time Zones

All times are in EDT time to prevent confusion due to time zone crossing. See the DAL2254 flight status page for this flight to view local times or setup timezone preferences in your user account.

Time Position Orientation Groundspeed Altitude Reporting Facility
EDT Latitude Longitude Course Direction KTS MPH feet Rate Location/Type
01:43PM 33.9158 -118.4772 90° East 217 250 2,400  Level Los Angeles Center
01:44PM 33.8536 -118.5178 208° Southwest 277 319 4,000 1,260 Climbing Los Angeles Center
01:45PM 33.7630 -118.6173 132° Southeast  Level FlightAware Approximate
01:45PM 33.7758 -118.5186 181° South 274 315 5,100  Level Los Angeles Center
01:46PM 33.6814 -118.5050 101° East  Level FlightAware Approximate
01:46PM 33.7006 -118.5083 174° South 290 334 8,200  Level Los Angeles Center
01:47PM 33.6407 -118.3647 121° Southeast  Level FlightAware Approximate
01:47PM 33.6681 -118.4242 115° Southeast 284 327 10,800  Level Los Angeles Center
01:48PM 33.6333 -118.2165 90° East  Level FlightAware Approximate
01:49PM 33.6333 -118.0658 90° East  Level FlightAware Approximate
01:49PM 33.6431 -118.3006 104° East 331 381 13,800  Level Los Angeles Center
01:50PM 33.6450 -118.1786 89° East 373 429 15,700 1,920 Climbing Los Angeles Center
01:51PM 33.6447 -118.0458 90° East 395 455 17,800 2,160 Climbing Los Angeles Center
01:52PM 33.6447 -117.9067 90° East 413 475 20,200 2,220 Climbing Los Angeles Center
01:53PM 33.6447 -117.7631 90° East 427 491 22,400 2,220 Climbing Los Angeles Center
01:54PM 33.6444 -117.5889 90° East 436 502 24,800 1,560 Climbing Los Angeles Center
01:55PM 33.6442 -117.4392 90° East 444 511 25,700 1,260 Climbing Los Angeles Center
01:56PM 33.6428 -117.2833 91° East 463 533 27,500 1,740 Climbing Los Angeles Center
01:57PM 33.6414 -117.1303 91° East 463 533 29,400 1,860 Climbing Los Angeles Center
01:58PM 33.6578 -116.9842 82° East 446 513 31,400 1,860 Climbing Los Angeles Center
01:59PM 33.6978 -116.8219 73° East 429 494 33,300 1,560 Climbing Los Angeles Center
02:00PM 33.7331 -116.6844 73° East 428 493 34,700 1,320 Climbing Los Angeles Center
02:01PM 33.7658 -116.5497 74° East 424 488 36,100 960 Climbing Los Angeles Center
02:02PM 33.8058 -116.3908 73° East 418 481 36,900 360 Climbing Los Angeles Center
02:03PM 33.8389 -116.2575 73° East 418 481 37,000  Climbing Los Angeles Center
02:04PM 33.8719 -116.1217 74° East 420 483 36,900 -60 Descending Los Angeles Center
02:05PM 33.9056 -115.9867 73° East 420 483 36,900  Level Los Angeles Center
02:06PM 33.9447 -115.8222 74° East 425 489 36,900  Level Los Angeles Center
02:07PM 33.9756 -115.6847 75° East 426 490 36,900  Level Los Angeles Center
02:08PM 33.9967 -115.5433 80° East 428 493 36,900  Level Los Angeles Center
02:09PM 34.0172 -115.3986 80° East 435 501 36,900  Level Los Angeles Center
02:10PM 34.0389 -115.2556 80° East 434 499 37,000  Climbing Los Angeles Center
02:11PM 34.0592 -115.1103 80° East 437 503 36,900 -60 Descending Los Angeles Center
02:13PM 34.0839 -114.9386 80° East 436 502 36,900  Level Los Angeles Center
02:14PM 34.1067 -114.7956 79° East 435 501 36,900  Level Los Angeles Center
02:15PM 34.1272 -114.6525 80° East 433 498 36,900  Level Los Angeles Center
02:16PM 34.1472 -114.5128 80° East 425 489 36,900  Level Los Angeles Center
02:17PM 34.1681 -114.3653 80° East 422 486 37,000  Climbing Albuquerque Center
02:18PM 34.1889 -114.2256 80° East 420 483 37,000  Level Albuquerque Center
02:19PM 34.2083 -114.0869 80° East 420 483 37,000  Level Albuquerque Center
02:20PM 34.2278 -113.9483 80° East 419 482 37,000  Level Albuquerque Center
02:21PM 34.2511 -113.7789 80° East 425 489 37,000  Level Albuquerque Center
02:22PM 34.2708 -113.6358 80° East 431 496 37,000  Level Albuquerque Center
02:23PM 34.2850 -113.5225 81° East 416 479 37,000  Level Albuquerque Center
02:24PM 34.3064 -113.3594 81° East 410 472 37,000  Level Albuquerque Center
02:25PM 34.3250 -113.2228 81° East 412 474 37,000  Level Albuquerque Center
02:26PM 34.3425 -113.0878 81° East 409 471 37,000  Level Albuquerque Center
02:27PM 34.3597 -112.9519 81° East 408 470 37,000  Level Albuquerque Center
02:28PM 34.3772 -112.8158 81° East 409 471 37,000  Level Albuquerque Center
02:29PM 34.3953 -112.6781 81° East 411 473 37,000  Level Albuquerque Center
02:30PM 34.4122 -112.5389 82° East 416 479 37,000  Level Albuquerque Center
02:31PM 34.4294 -112.4033 81° East 411 473 37,000  Level Albuquerque Center
02:32PM 34.4464 -112.2700 81° East 404 465 37,000  Level Albuquerque Center
02:33PM 34.4656 -112.1086 82° East 403 464 37,000  Level Albuquerque Center
02:34PM 34.4822 -111.9742 81° East 402 463 37,000  Level Albuquerque Center
02:35PM 34.4983 -111.8394 82° East 402 463 37,000  Level Albuquerque Center
02:36PM 34.5147 -111.7011 82° East 409 471 37,000  Level Albuquerque Center
02:37PM 34.5317 -111.5606 82° East 417 480 37,000  Level Albuquerque Center
02:38PM 34.5475 -111.4253 82° East 409 471 37,100 360 Climbing Albuquerque Center
02:39PM 34.5633 -111.2883 82° East 407 468 37,800 660 Climbing Albuquerque Center
02:40PM 34.5794 -111.1514 82° East 409 471 38,500 540 Climbing Albuquerque Center
02:41PM 34.5950 -111.0122 82° East 414 476 39,000 240 Climbing Albuquerque Center
02:42PM 34.6131 -110.8428 83° East 420 483 39,000  Level Albuquerque Center
02:43PM 34.6306 -110.6983 82° East 424 488 39,000  Level Albuquerque Center
02:44PM 34.6458 -110.5661 82° East 419 482 39,000  Level Albuquerque Center
02:45PM 34.6639 -110.4100 82° East 418 481 39,000  Level Albuquerque Center
02:46PM 34.6783 -110.2758 83° East 419 482 39,000  Level Albuquerque Center
02:47PM 34.6919 -110.1411 83° East 420 483 39,000  Level Albuquerque Center
02:48PM 34.7072 -109.9794 83° East 428 493 39,000  Level Albuquerque Center
02:49PM 34.7214 -109.8450 83° East 424 488 39,000  Level Albuquerque Center
02:51PM 34.7381 -109.6861 83° East 424 488 39,000  Level Albuquerque Center
02:52PM 34.7522 -109.5539 83° East 418 481 39,000  Level Albuquerque Center
02:53PM 34.7678 -109.3967 83° East 419 482 39,000  Level Albuquerque Center
02:54PM 34.7808 -109.2633 83° East 418 481 39,000  Level Albuquerque Center
02:55PM 34.7942 -109.1278 83° East 420 483 39,000  Level Albuquerque Center
02:56PM 34.8094 -108.9664 83° East 428 493 39,000  Level Albuquerque Center
02:57PM 34.8239 -108.8267 83° East 433 498 39,000  Level Albuquerque Center
02:58PM 34.8381 -108.6633 84° East 436 502 39,000  Level Albuquerque Center
02:59PM 34.8519 -108.5242 83° East 435 501 39,000  Level Albuquerque Center
03:00PM 34.8658 -108.3603 84° East 437 503 39,000  Level Albuquerque Center
03:01PM 34.8786 -108.2219 84° East 433 498 39,000  Level Albuquerque Center
03:02PM 34.8914 -108.0825 84° East 433 498 39,000  Level Albuquerque Center
03:03PM 34.9050 -107.9200 84° East 434 499 39,000  Level Albuquerque Center
03:04PM 34.9172 -107.7789 84° East 433 498 39,000  Level Albuquerque Center
03:05PM 34.9303 -107.6308 84° East 438 504 39,000  Level Albuquerque Center
03:06PM 34.9422 -107.4839 84° East 437 503 39,000  Level Albuquerque Center
03:07PM 34.9542 -107.3356 84° East 438 504 39,000  Level Albuquerque Center
03:08PM 34.9672 -107.1692 84° East 437 503 39,000  Level Albuquerque Center
03:09PM 34.9797 -107.0286 84° East 434 499 39,000  Level Albuquerque Center
03:10PM 34.9917 -106.8678 85° East 426 490 39,000  Level Albuquerque Center
03:11PM 35.0014 -106.7308 85° East 424 488 39,000  Level Albuquerque Center
03:12PM 35.0139 -106.5689 85° East 427 491 39,000  Level Albuquerque Center
03:13PM 35.0236 -106.4444 85° East 437 503 39,000  Level Albuquerque Center
03:14PM 35.0358 -106.2711 85° East 430 495 39,000  Level Albuquerque Center
03:15PM 35.0456 -106.1250 85° East 431 496 39,000  Level Albuquerque Center
03:16PM 35.0567 -105.9800 85° East 431 496 39,000  Level Albuquerque Center
03:17PM 35.0678 -105.8219 85° East 432 497 39,000  Level Albuquerque Center
03:18PM 35.0781 -105.6733 85° East 435 501 39,000  Level Albuquerque Center
03:19PM 35.0892 -105.5192 85° East 448 516 39,000  Level Albuquerque Center
03:20PM 35.0989 -105.3650 86° East 451 519 39,000  Level Albuquerque Center
03:21PM 35.1089 -105.2086 85° East 457 526 39,000  Level Albuquerque Center
03:22PM 35.1189 -105.0531 85° East 456 525 39,000  Level Albuquerque Center
03:23PM 35.1289 -104.8958 86° East 460 529 39,000  Level Albuquerque Center
03:24PM 35.1378 -104.7406 86° East 456 525 39,000  Level Albuquerque Center
03:25PM 35.1481 -104.5708 86° East 455 524 39,000  Level Albuquerque Center
03:26PM 35.1600 -104.4167 85° East 456 525 39,000  Level Albuquerque Center
03:27PM 35.1675 -104.2619 87° East 457 526 39,000  Level Albuquerque Center
03:28PM 35.1761 -104.1086 86° East 454 522 39,000  Level Albuquerque Center
03:29PM 35.1847 -103.9550 86° East 455 524 39,000  Level Albuquerque Center
03:31PM 35.1928 -103.7928 86° East 456 525 39,000  Level Albuquerque Center
03:32PM 35.2011 -103.6386 86° East 453 521 39,000  Level Albuquerque Center
03:33PM 35.2092 -103.4850 86° East 450 518 39,000  Level Albuquerque Center
03:34PM 35.2175 -103.3053 87° East 450 518 39,000  Level Albuquerque Center
03:35PM 35.2253 -103.1514 86° East 450 518 39,000  Level Albuquerque Center
03:36PM 35.2322 -102.9958 87° East 454 522 39,000  Level Albuquerque Center
03:37PM 35.2381 -102.8508 87° East 456 525 39,000  Level Albuquerque Center
03:38PM 35.2444 -102.6967 87° East 456 525 39,000  Level Albuquerque Center
03:39PM 35.2517 -102.5414 87° East 458 527 39,000  Level Albuquerque Center
03:40PM 35.2594 -102.3539 87° East 459 528 39,000  Level Albuquerque Center
03:41PM 35.2650 -102.1983 87° East 459 528 39,000  Level Albuquerque Center
03:42PM 35.2714 -102.0428 87° East 459 528 39,000  Level Albuquerque Center
03:43PM 35.2775 -101.8975 87° East 459 528 39,000  Level Albuquerque Center
03:44PM 35.2847 -101.7147 87° East 458 527 39,000  Level Albuquerque Center
03:45PM 35.2894 -101.5803 87° East 458 527 39,000  Level Albuquerque Center
03:46PM 35.2956 -101.4239 87° East 459 528 39,000  Level Albuquerque Center
03:47PM 35.2994 -101.2478 88° East 464 534 39,000  Level Albuquerque Center
03:48PM 35.3042 -101.0894 88° East 466 536 39,000  Level Albuquerque Center
03:49PM 35.3089 -100.9292 88° East 470 541 39,000  Level Albuquerque Center
03:50PM 35.3133 -100.7681 88° East 473 544 39,000  Level Albuquerque Center
03:51PM 35.3175 -100.5900 88° East 477 549 39,000  Level Albuquerque Center
03:52PM 35.3228 -100.4281 88° East 477 549 39,000  Level Albuquerque Center
03:53PM 35.3261 -100.2650 89° East 479 551 39,000  Level Albuquerque Center
03:54PM 35.3292 -100.1011 89° East 482 555 39,000  Level Albuquerque Center
03:55PM 35.3344 -99.9067 88° East 479 551 39,000  Level Albuquerque Center
03:56PM 35.3372 -99.7431 89° East 480 552 39,000  Level Albuquerque Center
03:57PM 35.3403 -99.5800 89° East 480 552 39,000  Level Albuquerque Center
03:58PM 35.3425 -99.4169 89° East 481 554 39,000  Level Albuquerque Center
03:59PM 35.3447 -99.2561 89° East 477 549 39,000  Level Fort Worth Center
04:00PM 35.3469 -99.0933 89° East 477 549 39,000  Level Fort Worth Center
04:01PM 35.3511 -98.9281 88° East 477 549 39,000  Level Fort Worth Center
04:02PM 35.3508 -98.7625 90° East 477 549 39,000  Level Fort Worth Center
04:03PM 35.3506 -98.5969 90° East 477 549 39,000  Level Fort Worth Center
04:04PM 35.3500 -98.4342 90° East 477 549 39,000  Level Fort Worth Center
04:05PM 35.3511 -98.2661 89° East 477 549 39,000  Level Fort Worth Center
04:06PM 35.3481 -98.1033 91° East 477 549 39,000  Level Fort Worth Center
04:07PM 35.3467 -97.9353 91° East 482 555 39,000  Level Fort Worth Center
04:08PM 35.3453 -97.7697 91° East 482 555 39,000  Level Fort Worth Center
04:09PM 35.3414 -97.6044 92° East 482 555 39,000  Level Fort Worth Center
04:10PM 35.3417 -97.4289 90° East 491 565 39,000  Level Fort Worth Center
04:11PM 35.3311 -97.2839 95° East 491 565 39,000  Level Fort Worth Center
04:12PM 35.3350 -97.1081 88° East 498 573 39,000  Level Fort Worth Center
04:13PM 35.3322 -96.9378 91° East 498 573 39,000  Level Fort Worth Center
04:14PM 35.3275 -96.7697 92° East 498 573 39,000  Level Fort Worth Center
04:15PM 35.3244 -96.5994 91° East 498 573 39,000  Level Fort Worth Center
04:16PM 35.3211 -96.4314 91° East 498 573 39,000  Level Fort Worth Center
04:17PM 35.3175 -96.2611 91° East 498 573 39,000  Level Fort Worth Center
04:18PM 35.3158 -96.0881 91° East 498 573 39,000  Level Fort Worth Center
04:19PM 35.3078 -95.9178 93° East 498 573 39,000  Level Fort Worth Center
04:20PM 35.3078 -95.7497 90° East 493 567 39,000  Level Fort Worth Center
04:21PM 35.3011 -95.5769 93° East 493 567 39,000  Level Fort Worth Center
04:23PM 35.2911 -95.2997 92° East 498 573 39,000  Level Memphis Center
04:24PM 35.2875 -95.1264 91° East 498 573 39,000  Level Memphis Center
04:25PM 35.2814 -94.9531 92° East 503 579 39,000  Level Memphis Center
04:26PM 35.2731 -94.7797 93° East 503 579 39,000  Level Memphis Center
04:27PM 35.2706 -94.6119 91° East 522 601 39,000  Level Memphis Center
04:28PM 35.2639 -94.4386 93° East 527 606 39,000  Level Memphis Center
04:29PM 35.2550 -94.2628 93° East 521 600 39,000  Level Memphis Center
04:30PM 35.2519 -94.0872 91° East 521 600 39,000  Level Memphis Center
04:31PM 35.2425 -93.9114 94° East 521 600 39,000  Level Memphis Center
04:32PM 35.2328 -93.7381 94° East 521 600 39,000  Level Memphis Center
04:33PM 35.2272 -93.5597 92° East 521 600 39,000  Level Memphis Center
04:34PM 35.2189 -93.3867 93° East 521 600 39,000  Level Memphis Center
04:35PM 35.2131 -93.1958 92° East 516 594 39,000  Level Memphis Center
04:36PM 35.2064 -93.0228 93° East 516 594 39,000  Level Memphis Center
04:37PM 35.1956 -92.8397 94° East 524 603 39,000  Level Memphis Center
04:38PM 35.1844 -92.6564 94° East 530 610 39,000  Level Memphis Center
04:39PM 35.1750 -92.4808 94° East 530 610 39,000  Level Memphis Center
04:40PM 35.1656 -92.2953 94° East 535 616 39,000  Level Memphis Center
04:41PM 35.1536 -92.1169 95° East 535 616 39,000  Level Memphis Center
04:42PM 35.1456 -91.9392 93° East 535 616 39,000  Level Memphis Center
04:43PM 35.1372 -91.7586 93° East 535 616 39,000  Level Memphis Center
04:44PM 35.1600 -91.5736 81° East 535 616 39,000  Level Memphis Center
04:45PM 35.1931 -91.3936 77° East 540 621 39,000  Level Memphis Center
04:46PM 35.2256 -91.2136 77° East 540 621 39,000  Level Memphis Center
04:47PM 35.2539 -91.0333 79° East 545 627 39,000  Level Memphis Center
04:48PM 35.2900 -90.8531 76° East 545 627 39,000  Level Memphis Center
04:49PM 35.3200 -90.6725 78° East 545 627 39,000  Level Memphis Center
04:50PM 35.3514 -90.4844 78° East 545 627 39,000  Level Memphis Center
04:51PM 35.3828 -90.3011 78° East 550 633 39,000  Level Memphis Center
04:52PM 35.4139 -90.1175 78° East 550 633 39,000  Level Memphis Center
04:53PM 35.4428 -89.9492 78° East 550 633 39,000  Level Memphis Center
04:54PM 35.4711 -89.7631 79° East 548 631 39,000  Level Memphis Center
04:55PM 35.5014 -89.5792 79° East 548 631 39,000 -120 Level Memphis Center
04:56PM 35.5292 -89.3953 79° East 548 631 38,800 -600 Descending Memphis Center
04:57PM 35.5608 -89.1856 79° East 548 631 37,800 -960 Descending Memphis Center
04:58PM 35.5922 -88.9989 78° East 548 631 36,900 -960 Descending Memphis Center
04:59PM 35.6214 -88.8094 79° East 560 644 35,900 -1,440 Descending Memphis Center
05:00PM 35.6478 -88.6122 81° East 570 656 34,100 -1,500 Descending Memphis Center
05:01PM 35.6783 -88.4172 79° East 570 656 33,000 -1,800 Descending Memphis Center
05:02PM 35.7086 -88.2222 79° East 575 662 30,500 -3,300 Descending Memphis Center
05:03PM 35.7344 -88.0425 80° East 562 647 26,500 -3,900 Descending Memphis Center
05:04PM 35.7603 -87.8653 80° East 540 621 22,700 -4,020 Descending Memphis Center
05:05PM 35.7839 -87.7033 80° East 494 568 18,500 -4,140 Descending Memphis Center
05:06PM 35.8056 -87.5517 80° East 470 541 14,500 -3,360 Descending Memphis Center
05:07PM 35.8444 -87.4300 68° East 434 499 11,800 -2,160 Descending Memphis Center
05:08PM 35.8875 -87.3106 66° East 393 452 10,200 -1,200 Descending Memphis Center
05:09PM 35.9183 -87.2094 69° East 338 389 9,500 -1,200 Descending Memphis Center
05:10PM 35.9408 -87.1111 74° East 297 342 7,800 -1,740 Descending Memphis Center
05:11PM 35.9614 -87.0206 74° East 274 315 6,100 -1,500 Descending Memphis Center
05:12PM 35.9797 -86.9300 76° East 269 310 4,800 -1,500 Descending Memphis Center
05:13PM 35.9983 -86.8447 75° East 264 304 3,200 -900 Descending Memphis Center
05:14PM 36.0131 -86.7772 75° East 222 255 3,100 -120 Descending Memphis Center